Time;durP1;ratioP1;P1;durP2;ratioP2;P2;SDS_P1;SDS_P2;PMS_P1;PMS_P2;Temp;Humidity;BMP_temperature;BMP_pressure;BME280_temperature;BME280_humidity;BME280_pressure;Samples;Min_cycle;Max_cycle;Signal;HPM_P1;HPM_P2
2021/10/10 00:01:12;;;;;;;62.08;31.73;;;;;;;4.81;97.16;103008.78;5092506;28;20060;-76
2021/10/10 00:03:37;;;;;;;68.65;36.53;;;;;;;4.79;96.76;103007.97;5091455;28;20028;-76
2021/10/10 00:06:03;;;;;;;58.58;29.17;;;;;;;4.75;96.87;103010.69;5092372;28;20063;-76
2021/10/10 00:08:28;;;;;;;61.90;32.53;;;;;;;4.72;96.48;103012.59;5091669;28;20028;-76
2021/10/10 00:10:53;;;;;;;53.15;30.17;;;;;;;4.71;96.66;103005.56;5092424;28;20040;-76
2021/10/10 00:13:19;;;;;;;50.05;28.73;;;;;;;4.69;96.28;103002.13;5091809;28;20056;-76
2021/10/10 00:15:44;;;;;;;57.90;29.20;;;;;;;4.67;96.48;103002.19;5092523;28;20032;-76
2021/10/10 00:18:10;;;;;;;52.35;29.02;;;;;;;4.65;96.67;103003.13;5092082;28;20040;-76
2021/10/10 00:20:35;;;;;;;52.20;29.25;;;;;;;4.62;96.54;103001.44;5091752;28;20119;-76
2021/10/10 00:23:01;;;;;;;62.13;32.92;;;;;;;4.61;97.40;103001.50;5091927;28;20087;-76
2021/10/10 00:25:26;;;;;;;61.22;32.25;;;;;;;4.53;96.61;103004.38;5091583;28;20100;-76
2021/10/10 00:27:52;;;;;;;61.50;32.08;;;;;;;4.51;96.69;102996.50;5074178;28;20028;-75
2021/10/10 00:30:19;;;;;;;54.20;29.45;;;;;;;4.50;96.73;102993.91;5091675;28;20024;-76
2021/10/10 00:32:45;;;;;;;54.60;29.10;;;;;;;4.48;96.62;103007.16;5092165;28;20123;-76
2021/10/10 00:35:10;;;;;;;47.28;28.08;;;;;;;4.46;96.28;102997.53;5094670;28;20120;-76
2021/10/10 00:37:35;;;;;;;56.22;31.60;;;;;;;4.46;96.47;102995.75;5095600;28;20039;-76
2021/10/10 00:40:01;;;;;;;51.28;28.67;;;;;;;4.45;96.63;102995.81;5096394;28;20119;-76
2021/10/10 00:42:26;;;;;;;46.25;26.10;;;;;;;4.41;96.82;102995.91;5095608;28;20060;-76
2021/10/10 00:44:52;;;;;;;56.97;28.38;;;;;;;4.40;96.12;102993.31;5096100;28;20024;-76
2021/10/10 00:47:17;;;;;;;46.15;26.98;;;;;;;4.38;96.06;102990.72;5095925;28;20490;-76
2021/10/10 00:49:43;;;;;;;49.55;26.13;;;;;;;4.37;95.72;102999.56;5095897;28;20031;-76
2021/10/10 00:52:14;;;;;;;48.88;27.00;;;;;;;4.36;96.12;102997.84;5096114;28;20036;-76
2021/10/10 00:54:41;;;;;;;63.38;34.75;;;;;;;4.34;96.90;102994.34;5095311;28;20032;-76
2021/10/10 00:57:08;;;;;;;51.00;26.85;;;;;;;4.29;96.87;102987.53;5096073;28;20055;-76
2021/10/10 00:59:36;;;;;;;47.78;26.40;;;;;;;4.26;96.82;102992.88;5095065;28;20036;-76
2021/10/10 01:02:02;;;;;;;48.20;26.83;;;;;;;4.22;96.60;102984.19;5095693;28;20028;-76
2021/10/10 01:04:27;;;;;;;54.75;29.60;;;;;;;4.21;96.38;102979.81;5095128;28;20325;-76
2021/10/10 01:06:53;;;;;;;55.75;30.75;;;;;;;4.18;96.28;102980.78;5095751;28;20024;-76
2021/10/10 01:09:18;;;;;;;52.53;28.85;;;;;;;4.16;96.91;102974.69;5095351;28;20024;-76
2021/10/10 01:11:44;;;;;;;42.47;24.77;;;;;;;4.13;96.68;102982.69;5094996;28;20180;-76
2021/10/10 01:14:11;;;;;;;46.40;25.52;;;;;;;4.11;96.51;102981.88;5095547;28;20467;-76
2021/10/10 01:16:36;;;;;;;44.55;25.30;;;;;;;4.09;96.15;102985.44;5094836;28;20036;-76
2021/10/10 01:19:02;;;;;;;48.45;25.60;;;;;;;4.08;96.17;102981.13;5095237;28;20081;-76
2021/10/10 01:21:28;;;;;;;40.78;23.55;;;;;;;4.08;96.05;102976.69;5094283;28;20028;-76
2021/10/10 01:23:53;;;;;;;47.47;24.85;;;;;;;4.06;96.55;102978.50;5095475;28;20480;-76
2021/10/10 01:26:19;;;;;;;44.95;26.52;;;;;;;4.05;96.00;102976.78;5095245;28;20056;-76
2021/10/10 01:28:44;;;;;;;55.03;29.00;;;;;;;4.04;96.61;102977.69;5094403;28;20031;-76
2021/10/10 01:31:10;;;;;;;54.17;28.90;;;;;;;4.03;96.74;102971.56;5095320;28;20030;-76
2021/10/10 01:33:36;;;;;;;46.72;24.65;;;;;;;4.03;96.61;102973.31;5094593;28;20036;-76
2021/10/10 01:36:01;;;;;;;47.90;26.38;;;;;;;4.02;96.70;102972.47;5094930;28;20034;-76
2021/10/10 01:38:27;;;;;;;52.65;30.17;;;;;;;4.02;96.90;102971.63;5076399;28;20383;-76
2021/10/10 01:40:52;;;;;;;58.40;33.08;;;;;;;4.01;97.18;102972.50;5094987;28;20024;-76
2021/10/10 01:43:18;;;;;;;47.15;26.02;;;;;;;3.96;97.44;102964.75;5095070;28;20036;-76
2021/10/10 01:45:43;;;;;;;96.75;44.30;;;;;;;3.95;97.53;102970.91;5094173;28;20658;-76
2021/10/10 01:48:10;;;;;;;49.47;25.17;;;;;;;3.91;98.04;102960.50;5094847;28;20032;-76
2021/10/10 01:50:37;;;;;;;47.97;27.08;;;;;;;3.89;97.45;102960.56;5094136;28;20032;-76
2021/10/10 01:53:02;;;;;;;56.65;31.80;;;;;;;3.88;97.20;102962.34;5095043;28;20032;-76
2021/10/10 01:55:28;;;;;;;52.65;30.83;;;;;;;3.87;97.47;102962.38;5094127;28;20353;-76
2021/10/10 01:57:53;;;;;;;46.22;25.40;;;;;;;3.85;97.52;102969.44;5094788;28;20024;-76
2021/10/10 02:00:18;;;;;;;59.92;31.42;;;;;;;3.82;97.32;102962.50;5094835;28;20115;-76
2021/10/10 02:02:44;;;;;;;61.15;31.55;;;;;;;3.81;97.52;102962.56;5094040;28;20060;-76
2021/10/10 02:05:10;;;;;;;43.25;23.75;;;;;;;3.78;97.76;102966.13;5094531;28;20043;-76
2021/10/10 02:07:36;;;;;;;46.80;26.33;;;;;;;3.75;97.56;102967.97;5093920;28;20094;-76
2021/10/10 02:10:02;;;;;;;57.45;30.70;;;;;;;3.73;97.54;102961.88;5094455;28;20035;-76
2021/10/10 02:12:28;;;;;;;48.20;25.08;;;;;;;3.71;97.50;102961.94;5093820;28;20036;-76
2021/10/10 02:14:53;;;;;;;46.38;24.80;;;;;;;3.71;97.41;102961.94;5094335;28;20441;-76
2021/10/10 02:17:19;;;;;;;63.10;30.70;;;;;;;3.71;97.78;102960.16;5094269;28;20032;-76
2021/10/10 02:19:44;;;;;;;59.63;30.30;;;;;;;3.70;97.63;102955.81;5093673;28;20035;-76
2021/10/10 02:22:10;;;;;;;51.05;27.60;;;;;;;3.70;97.61;102966.34;5093855;28;20093;-76
2021/10/10 02:24:35;;;;;;;55.55;28.52;;;;;;;3.69;98.19;102959.34;5093560;28;20086;-76
2021/10/10 02:27:00;;;;;;;59.35;30.52;;;;;;;3.69;98.97;102951.44;5094183;28;20028;-76
2021/10/10 02:29:26;;;;;;;52.58;26.30;;;;;;;3.67;98.74;102952.38;5094033;28;20515;-75
2021/10/10 02:31:52;;;;;;;44.70;24.13;;;;;;;3.65;98.13;102948.94;5093033;28;20028;-75
2021/10/10 02:34:18;;;;;;;52.60;27.45;;;;;;;3.63;97.38;102948.13;5094037;28;20059;-75
2021/10/10 02:36:45;;;;;;;52.42;28.55;;;;;;;3.63;97.07;102948.97;5093273;28;20526;-76
2021/10/10 02:39:11;;;;;;;52.35;28.75;;;;;;;3.61;97.28;102953.41;5093863;28;20455;-75
2021/10/10 02:41:37;;;;;;;47.70;26.38;;;;;;;3.61;97.95;102948.16;5075327;28;20060;-76
2021/10/10 02:44:02;;;;;;;51.97;27.60;;;;;;;3.58;97.67;102948.22;5093839;28;20035;-76
2021/10/10 02:46:28;;;;;;;39.83;23.17;;;;;;;3.55;97.30;102958.84;5093662;28;20028;-75
2021/10/10 02:48:54;;;;;;;39.88;21.92;;;;;;;3.55;96.87;102953.59;5093088;28;20036;-76
2021/10/10 02:51:19;;;;;;;55.90;30.20;;;;;;;3.56;97.06;102951.84;5093634;28;20032;-76
2021/10/10 02:53:45;;;;;;;48.78;26.20;;;;;;;3.54;97.37;102949.25;5092980;28;20032;-76
2021/10/10 02:56:10;;;;;;;56.90;29.52;;;;;;;3.55;97.60;102945.69;5093565;28;20115;-75
2021/10/10 02:58:36;;;;;;;59.33;30.35;;;;;;;3.51;97.66;102947.56;5092090;28;20380;-76
2021/10/10 03:01:01;;;;;;;40.67;21.48;;;;;;;3.50;97.53;102942.31;5075373;28;20039;-76
2021/10/10 03:03:27;;;;;;;52.40;26.23;;;;;;;3.50;97.34;102937.06;5093491;28;20028;-75
2021/10/10 03:05:52;;;;;;;69.82;35.22;;;;;;;3.54;98.15;102933.44;5092745;28;20032;-76
2021/10/10 03:08:18;;;;;;;60.58;30.00;;;;;;;3.51;98.77;102937.03;5093343;28;20244;-75
2021/10/10 03:10:43;;;;;;;49.35;26.88;;;;;;;3.46;98.56;102931.03;5092671;28;20078;-76
2021/10/10 03:13:09;;;;;;;51.08;26.75;;;;;;;3.44;98.32;102930.19;5093520;28;20057;-75
2021/10/10 03:15:35;;;;;;;52.72;28.02;;;;;;;3.44;98.10;102937.25;5092549;28;20079;-76
2021/10/10 03:18:01;;;;;;;64.10;33.30;;;;;;;3.41;98.44;102930.28;5093220;28;20070;-75
2021/10/10 03:20:26;;;;;;;52.70;27.58;;;;;;;3.38;98.49;102930.38;5092881;28;20128;-75
2021/10/10 03:22:52;;;;;;;69.45;34.92;;;;;;;3.38;98.46;102925.09;5074073;28;20058;-75
2021/10/10 03:25:17;;;;;;;62.20;30.77;;;;;;;3.35;98.61;102920.78;5092926;28;20476;-75
2021/10/10 03:27:43;;;;;;;61.28;31.38;;;;;;;3.34;98.69;102929.59;5092430;28;20036;-75
2021/10/10 03:30:09;;;;;;;57.80;28.95;;;;;;;3.34;98.75;102928.72;5092919;28;20107;-75
2021/10/10 03:32:34;;;;;;;53.58;28.02;;;;;;;3.34;99.07;102936.59;5092642;28;20035;-75
2021/10/10 03:34:59;;;;;;;68.88;32.28;;;;;;;3.34;98.86;102939.22;5074125;28;20036;-75
2021/10/10 03:37:25;;;;;;;49.22;23.10;;;;;;;3.32;99.05;102938.41;5092819;28;20407;-75
2021/10/10 03:39:50;;;;;;;100.35;42.95;;;;;;;3.36;98.98;102926.91;5092197;28;20036;-75
2021/10/10 03:42:16;;;;;;;66.60;32.05;;;;;;;3.36;99.46;102940.09;5092754;28;20032;-75
2021/10/10 03:44:41;;;;;;;71.15;34.72;;;;;;;3.34;99.92;102928.72;5092143;28;20082;-75
2021/10/10 03:47:08;;;;;;;54.47;26.85;;;;;;;3.30;99.78;102929.69;5092686;28;20032;-75
2021/10/10 03:49:33;;;;;;;65.97;30.95;;;;;;;3.26;99.73;102928.06;5092457;28;20060;-75
2021/10/10 03:52:00;;;;;;;62.10;29.65;;;;;;;3.23;99.66;102922.88;5092001;28;20480;-75
2021/10/10 03:56:52;;;;;;;63.00;31.35;;;;;;;3.22;99.24;102926.41;5092006;28;20429;-74
2021/10/10 03:59:19;;;;;;;65.13;30.02;;;;;;;3.25;99.71;102929.81;5092432;28;20028;-74
2021/10/10 04:01:44;;;;;;;74.28;35.58;;;;;;;3.24;99.90;102929.84;5091987;28;20161;-75
2021/10/10 04:04:10;;;;;;;76.35;34.95;;;;;;;3.24;99.78;102932.47;5092467;28;20479;-75
2021/10/10 04:06:35;;;;;;;61.03;29.55;;;;;;;3.21;99.70;102932.56;5092401;28;20039;-75
2021/10/10 04:09:01;;;;;;;72.72;33.72;;;;;;;3.21;99.84;102925.56;5092063;28;20485;-75
2021/10/10 04:11:26;;;;;;;75.28;34.35;;;;;;;3.21;99.92;102933.44;5096760;28;20032;-75
2021/10/10 04:13:51;;;;;;;61.45;30.52;;;;;;;3.21;100.00;102933.44;5096042;28;20032;-75
2021/10/10 04:16:17;;;;;;;71.70;34.40;;;;;;;3.22;100.00;102929.03;5096784;28;20059;-75
2021/10/10 04:18:42;;;;;;;69.97;30.63;;;;;;;3.27;100.00;102929.78;5095917;28;20040;-75
2021/10/10 04:21:08;;;;;;;96.00;41.85;;;;;;;3.32;100.00;102930.53;5096192;28;20399;-75
2021/10/10 04:23:33;;;;;;;70.25;34.22;;;;;;;3.31;100.00;102931.44;5096549;28;20048;-74
2021/10/10 04:25:59;;;;;;;66.10;31.77;;;;;;;3.31;100.00;102931.44;5077925;28;20499;-74
2021/10/10 04:28:25;;;;;;;100.13;42.63;;;;;;;3.33;100.00;102929.63;5096392;28;20059;-75
2021/10/10 04:30:51;;;;;;;109.25;45.30;;;;;;;3.38;100.00;102926.88;5095807;28;20056;-75
2021/10/10 04:33:16;;;;;;;82.13;36.17;;;;;;;3.38;100.00;102929.50;5096310;28;20071;-75
2021/10/10 04:35:43;;;;;;;77.88;35.60;;;;;;;3.35;100.00;102926.03;5095823;28;20465;-78
2021/10/10 04:38:09;;;;;;;77.60;33.00;;;;;;;3.33;100.00;102924.38;5096147;28;20035;-75
2021/10/10 04:40:34;;;;;;;71.97;33.10;;;;;;;3.31;100.00;102921.78;5096174;28;20032;-75
2021/10/10 04:42:59;;;;;;;81.97;35.97;;;;;;;3.32;100.00;102923.50;5095250;28;20074;-75
2021/10/10 04:45:25;;;;;;;82.00;36.20;;;;;;;3.33;100.00;102924.38;5095723;28;20054;-75
2021/10/10 04:47:50;;;;;;;82.05;37.75;;;;;;;3.33;100.00;102919.09;5077379;28;20036;-75
2021/10/10 04:50:15;;;;;;;90.30;38.28;;;;;;;3.33;100.00;102916.47;5095744;28;20034;-74
2021/10/10 04:52:41;;;;;;;99.45;41.15;;;;;;;3.31;100.00;102913.88;5095531;28;20115;-74
2021/10/10 04:55:07;;;;;;;85.63;38.22;;;;;;;3.34;100.00;102911.19;5077348;28;20044;-73
2021/10/10 04:57:32;;;;;;;83.45;37.40;;;;;;;3.37;100.00;102911.97;5095729;28;20100;-74
2021/10/10 04:59:57;;;;;;;66.55;32.47;;;;;;;3.40;100.00;102907.47;5095178;28;20054;-74
2021/10/10 05:02:23;;;;;;;79.40;37.33;;;;;;;3.42;100.00;102912.72;5095801;28;20373;-74
2021/10/10 05:04:50;;;;;;;84.13;39.15;;;;;;;3.43;100.00;102911.81;5095181;28;20081;-76
2021/10/10 05:07:17;;;;;;;77.95;35.33;;;;;;;3.46;100.00;102914.34;5095592;28;20032;-74
2021/10/10 05:09:42;;;;;;;79.55;38.72;;;;;;;3.50;100.00;102911.59;5095640;28;20039;-74
2021/10/10 05:12:08;;;;;;;84.90;38.40;;;;;;;3.52;100.00;102915.06;5094926;28;20035;-74
2021/10/10 05:14:33;;;;;;;74.57;37.10;;;;;;;3.57;100.00;102904.41;5095481;28;20048;-74
2021/10/10 05:16:59;;;;;;;65.90;33.42;;;;;;;3.60;100.00;102892.91;5094798;28;20028;-74
2021/10/10 05:19:25;;;;;;;59.40;30.65;;;;;;;3.66;100.00;102879.59;5095386;28;20085;-75
2021/10/10 05:21:50;;;;;;;66.90;32.65;;;;;;;3.73;100.00;102872.38;5093869;28;20472;-75
2021/10/10 05:24:16;;;;;;;83.13;37.50;;;;;;;3.79;100.00;102874.81;5095688;28;20044;-75
2021/10/10 05:26:41;;;;;;;97.32;39.40;;;;;;;3.83;100.00;102877.31;5095198;28;20036;-75
2021/10/10 05:29:07;;;;;;;145.55;50.25;;;;;;;3.85;100.00;102878.16;5094363;28;20408;-75
2021/10/10 05:31:32;;;;;;;153.85;51.65;;;;;;;3.89;100.00;102873.63;5095223;28;20422;-75
2021/10/10 05:33:58;;;;;;;149.43;52.28;;;;;;;3.91;100.00;102879.72;5094586;28;20115;-73
2021/10/10 05:36:23;;;;;;;171.13;57.00;;;;;;;3.95;100.00;102891.88;5095117;28;20057;-75
2021/10/10 05:38:49;;;;;;;172.13;56.75;;;;;;;4.01;100.00;102890.84;5094366;28;20032;-79
2021/10/10 05:41:14;;;;;;;153.60;54.30;;;;;;;4.02;100.00;102885.53;5094745;28;20032;-75
2021/10/10 05:43:40;;;;;;;155.30;54.35;;;;;;;4.06;100.00;102896.81;5094903;28;20460;-75
2021/10/10 05:46:05;;;;;;;162.27;55.28;;;;;;;4.09;100.00;102893.25;5094419;28;20040;-75
2021/10/10 05:48:30;;;;;;;143.52;49.85;;;;;;;4.11;100.00;102886.19;5094793;28;20081;-75
2021/10/10 05:50:56;;;;;;;147.93;50.60;;;;;;;4.10;100.00;102893.19;5094003;28;20024;-77
2021/10/10 05:53:21;;;;;;;152.70;55.35;;;;;;;4.13;100.00;102886.97;5094837;28;20523;-74
2021/10/10 05:55:46;;;;;;;158.55;55.63;;;;;;;4.16;100.00;102886.88;5094778;28;20044;-77
2021/10/10 05:58:20;;;;;;;162.35;55.22;;;;;;;4.16;100.00;102895.63;5094006;28;20040;-76
2021/10/10 06:00:46;;;;;;;174.40;56.75;;;;;;;4.19;100.00;102892.06;5094803;28;20032;-76
2021/10/10 06:03:12;;;;;;;159.48;56.60;;;;;;;4.19;100.00;102892.06;5094000;28;20031;-75
2021/10/10 06:05:37;;;;;;;147.90;52.40;;;;;;;4.18;100.00;102893.84;5094716;28;20139;-75
2021/10/10 06:08:03;;;;;;;152.45;52.90;;;;;;;4.17;100.00;102888.63;5093735;28;20043;-75
2021/10/10 06:10:28;;;;;;;146.70;53.67;;;;;;;4.14;100.00;102892.19;5094266;28;20447;-75
2021/10/10 06:12:54;;;;;;;134.30;52.00;;;;;;;4.10;100.00;102893.19;5093748;28;20028;-75
2021/10/10 06:15:20;;;;;;;122.95;50.88;;;;;;;4.08;100.00;102892.38;5094135;28;20388;-75
2021/10/10 06:17:45;;;;;;;123.55;52.85;;;;;;;4.07;100.00;102882.75;5094339;28;20464;-75
2021/10/10 06:20:10;;;;;;;117.55;51.40;;;;;;;4.09;100.00;102886.22;5093569;28;20040;-75
2021/10/10 06:22:36;;;;;;;111.80;52.05;;;;;;;4.12;100.00;102888.75;5093588;28;20055;-74
2021/10/10 06:25:02;;;;;;;121.25;55.50;;;;;;;4.14;100.00;102889.56;5093398;28;20472;-75
2021/10/10 06:27:28;;;;;;;119.10;53.35;;;;;;;4.16;100.00;102882.47;5093917;28;20028;-74
2021/10/10 06:29:53;;;;;;;94.57;48.13;;;;;;;4.18;100.00;102890.31;5093893;28;20366;-75
2021/10/10 06:32:18;;;;;;;110.32;52.10;;;;;;;4.21;100.00;102885.84;5092117;28;20043;-75
2021/10/10 06:34:44;;;;;;;110.68;52.20;;;;;;;4.24;100.00;102879.63;5094072;28;20050;-75
2021/10/10 06:37:09;;;;;;;116.60;53.53;;;;;;;4.30;100.00;102882.06;5093328;28;20040;-76
2021/10/10 06:39:35;;;;;;;120.47;55.72;;;;;;;4.35;100.00;102881.91;5093830;28;20060;-74
2021/10/10 06:42:05;;;;;;;119.35;56.90;;;;;;;4.42;100.00;102888.72;5093129;28;20036;-75
2021/10/10 06:44:31;;;;;;;113.40;56.13;;;;;;;4.49;100.00;102895.50;5093804;28;20032;-75
2021/10/10 06:46:57;;;;;;;118.38;54.65;;;;;;;4.58;100.00;102895.22;5092890;28;20027;-78
2021/10/10 06:49:23;;;;;;;129.57;58.67;;;;;;;4.67;100.00;102888.78;5093664;28;20035;-76
2021/10/10 06:51:48;;;;;;;127.07;58.20;;;;;;;4.78;100.00;102901.59;5093309;28;20391;-74
2021/10/10 06:54:13;;;;;;;106.97;54.03;;;;;;;4.88;100.00;102907.41;5092909;28;20039;-75
2021/10/10 06:56:39;;;;;;;109.63;54.55;;;;;;;5.00;100.00;102908.78;5093167;28;20040;-75
2021/10/10 06:59:05;;;;;;;111.90;53.50;;;;;;;5.11;100.00;102912.78;5092825;28;20039;-76
2021/10/10 07:01:31;;;;;;;101.72;50.55;;;;;;;5.25;100.00;102904.38;5093385;28;20138;-76
2021/10/10 07:03:57;;;;;;;101.40;49.83;;;;;;;5.37;100.00;102908.38;5093725;28;20040;-78
2021/10/10 07:06:23;;;;;;;99.22;51.88;;;;;;;5.51;100.00;102913.19;5093434;28;20032;-77
2021/10/10 07:08:48;;;;;;;92.70;48.45;;;;;;;5.64;100.00;102910.94;5093309;28;20115;-77
2021/10/10 07:11:14;;;;;;;83.25;47.65;;;;;;;5.76;100.00;102912.25;5092637;28;20036;-78
2021/10/10 07:13:39;;;;;;;84.47;47.78;;;;;;;5.87;100.00;102915.38;5092912;28;20032;-77
2021/10/10 07:16:04;;;;;;;78.88;44.88;;;;;;;5.99;100.00;102909.66;5092158;28;20027;-75
2021/10/10 07:18:41;;;;;;;87.78;45.58;;;;;;;6.11;100.00;102916.25;5092877;28;20081;-75
2021/10/10 07:21:20;;;;;;;78.75;44.25;;;;;;;6.23;100.00;102922.00;5092377;28;20122;-75
2021/10/10 07:26:21;;;;;;;80.20;45.17;;;;;;;6.51;100.00;102917.31;5092195;28;20048;-75
2021/10/10 07:28:47;;;;;;;85.32;46.50;;;;;;;6.67;100.00;102929.91;5093071;28;20036;-76
2021/10/10 07:31:12;;;;;;;77.97;44.45;;;;;;;6.82;100.00;102931.97;5092131;28;20081;-77
2021/10/10 07:33:37;;;;;;;90.32;46.20;;;;;;;7.00;100.00;102927.69;5074515;28;20028;-76
2021/10/10 07:36:04;;;;;;;74.75;43.03;;;;;;;7.16;100.00;102932.31;5092398;28;20434;-76
2021/10/10 07:38:29;;;;;;;71.95;41.25;;;;;;;7.30;100.00;102937.88;5092809;28;20463;-76
2021/10/10 07:40:55;;;;;;;72.43;40.25;;;;;;;7.37;100.00;102936.66;5092496;28;20036;-77
2021/10/10 07:43:23;;;;;;;63.58;38.40;;;;;;;7.47;100.00;102939.78;5092075;28;20114;-76
2021/10/10 07:45:49;;;;;;;62.42;39.10;;;;;;;7.58;100.00;102940.19;5092890;28;20383;-76
2021/10/10 07:48:14;;;;;;;58.42;35.40;;;;;;;7.65;100.00;102948.72;5092158;28;20028;-76
2021/10/10 07:50:41;;;;;;;53.63;32.55;;;;;;;7.71;100.00;102942.28;5092352;28;20062;-76
2021/10/10 07:53:07;;;;;;;54.40;34.08;;;;;;;7.74;100.00;102944.78;5091644;28;20042;-76
2021/10/10 07:55:33;;;;;;;51.85;34.47;;;;;;;7.80;100.00;102948.97;5092919;28;20029;-79
2021/10/10 07:57:59;;;;;;;53.65;34.20;;;;;;;7.88;100.00;102949.44;5092612;28;20032;-76
2021/10/10 08:00:24;;;;;;;49.30;33.17;;;;;;;7.98;100.00;102956.06;5091569;28;20036;-79
2021/10/10 08:02:53;;;;;;;52.42;34.45;;;;;;;8.08;100.00;102946.75;5089686;28;20484;-77
2021/10/10 08:05:20;;;;;;;62.55;38.60;;;;;;;8.19;100.00;102948.91;5089158;28;20098;-78
2021/10/10 08:07:45;;;;;;;63.35;38.47;;;;;;;8.26;100.00;102955.63;5089840;28;20117;-76
2021/10/10 08:10:11;;;;;;;62.40;38.78;;;;;;;8.37;100.00;102954.28;5089131;28;20496;-76
2021/10/10 08:12:36;;;;;;;63.47;38.03;;;;;;;8.49;100.00;102952.88;5089682;28;20036;-75
2021/10/10 08:15:02;;;;;;;55.33;35.95;;;;;;;8.65;100.00;102956.50;5089242;28;20039;-78
2021/10/10 08:17:27;;;;;;;49.35;32.88;;;;;;;8.76;100.00;102955.97;5088702;28;20399;-77
2021/10/10 08:19:52;;;;;;;53.80;34.88;;;;;;;8.81;99.90;102948.66;5089278;28;20555;-76
2021/10/10 08:22:18;;;;;;;56.63;34.78;;;;;;;8.85;98.74;102952.84;5088740;28;20039;-77
2021/10/10 08:24:44;;;;;;;64.03;38.35;;;;;;;8.86;98.31;102953.72;5089554;28;20036;-77
2021/10/10 08:27:09;;;;;;;68.28;39.35;;;;;;;8.93;98.23;102948.03;5070482;28;20035;-77
2021/10/10 08:29:34;;;;;;;65.65;39.85;;;;;;;9.08;98.45;102943.75;5089661;28;20028;-76
2021/10/10 08:32:00;;;;;;;75.07;42.70;;;;;;;9.19;97.57;102948.50;5089728;28;20125;-77
2021/10/10 08:34:25;;;;;;;74.55;44.10;;;;;;;9.26;96.98;102951.72;5089251;28;20097;-78
2021/10/10 08:36:51;;;;;;;72.85;41.70;;;;;;;9.33;96.29;102953.97;5089403;28;20036;-76
2021/10/10 08:39:22;;;;;;;67.18;41.95;;;;;;;9.48;95.86;102948.78;5088490;28;20039;-76
2021/10/10 08:41:49;;;;;;;73.25;43.20;;;;;;;9.88;96.08;102951.97;5089314;28;20063;-77
2021/10/10 08:44:18;;;;;;;69.07;42.20;;;;;;;10.71;93.21;102946.53;5088799;28;20592;-76
2021/10/10 08:46:45;;;;;;;50.72;34.72;;;;;;;11.89;88.72;102945.72;5089316;28;20035;-76
2021/10/10 08:49:11;;;;;;;52.40;33.97;;;;;;;12.86;82.36;102940.31;5088802;28;20036;-77
2021/10/10 08:51:38;;;;;;;45.78;31.85;;;;;;;13.53;77.50;102939.38;5088825;28;20491;-77
2021/10/10 08:54:04;;;;;;;47.88;32.20;;;;;;;13.61;79.28;102943.31;5089169;28;20040;-78
2021/10/10 08:56:30;;;;;;;49.03;32.40;;;;;;;13.21;76.83;102941.56;5091445;28;20248;-78
2021/10/10 08:58:56;;;;;;;53.83;34.22;;;;;;;12.67;79.82;102945.16;5093015;28;20407;-79
2021/10/10 09:01:33;;;;;;;51.67;34.92;;;;;;;12.22;82.86;102945.41;5090655;28;20028;-73
2021/10/10 09:03:59;;;;;;;56.40;35.13;;;;;;;11.92;85.15;102941.03;5091724;28;20031;-79
2021/10/10 09:06:24;;;;;;;60.55;37.25;;;;;;;11.82;86.98;102950.56;5094526;28;20384;-76
2021/10/10 09:08:52;;;;;;;54.97;34.63;;;;;;;11.87;85.59;102945.81;5095608;28;20063;-76
2021/10/10 09:11:17;;;;;;;53.60;34.70;;;;;;;11.73;85.81;102949.31;5094982;28;20063;-76
2021/10/10 09:13:43;;;;;;;57.30;37.92;;;;;;;11.57;86.75;102944.09;5095498;28;20111;-76
2021/10/10 09:16:10;;;;;;;60.45;36.33;;;;;;;11.54;87.05;102956.72;5095443;28;20028;-78
2021/10/10 09:18:39;;;;;;;60.97;38.45;;;;;;;11.75;88.06;102954.59;5094784;28;20453;-78
2021/10/10 09:21:18;;;;;;;60.03;36.85;;;;;;;12.04;86.81;102966.09;5095420;28;20024;-78
2021/10/10 09:23:52;;;;;;;57.00;36.97;;;;;;;12.22;86.83;102972.09;5094786;28;20381;-78
2021/10/10 09:26:19;;;;;;;63.65;37.90;;;;;;;12.42;87.37;102973.50;5094520;28;20113;-78
2021/10/10 09:28:46;;;;;;;60.72;37.13;;;;;;;12.65;86.87;102963.97;5095249;28;20056;-77
2021/10/10 09:31:12;;;;;;;53.40;36.20;;;;;;;12.79;85.28;102967.53;5095136;28;20036;-78
2021/10/10 09:33:50;;;;;;;56.90;37.67;;;;;;;13.04;84.98;102962.25;5094533;28;20059;-78
2021/10/10 09:36:22;;;;;;;64.47;37.22;;;;;;;13.32;80.63;102965.75;5094564;28;20056;-79
2021/10/10 09:41:31;;;;;;;58.20;36.92;;;;;;;13.07;80.54;102968.38;5094342;28;19915;-79
2021/10/10 09:44:19;;;;;;;57.38;37.28;;;;;;;12.98;81.10;102965.34;5094745;28;20024;-73
2021/10/10 09:46:46;;;;;;;64.07;37.67;;;;;;;13.02;81.95;102974.88;5094875;28;20032;-76
2021/10/10 09:49:34;;;;;;;62.38;39.13;;;;;;;13.07;82.51;102977.25;5094667;28;20445;-78
2021/10/10 09:52:08;;;;;;;55.70;37.25;;;;;;;13.17;80.19;102975.66;5094855;28;20488;-75
2021/10/10 09:54:57;;;;;;;62.17;38.70;;;;;;;13.43;81.93;102972.22;5094123;28;20479;-73
2021/10/10 09:57:28;;;;;;;60.08;38.00;;;;;;;14.20;80.64;102969.47;5094038;28;20036;-79
2021/10/10 09:59:54;;;;;;;59.55;38.78;;;;;;;14.99;76.63;102978.81;5094719;28;20488;-76
2021/10/10 10:02:37;;;;;;;58.22;38.45;;;;;;;15.49;74.08;102975.03;5093648;28;20028;-76
2021/10/10 10:05:03;;;;;;;59.03;37.83;;;;;;;15.60;73.06;102974.19;5076548;28;20455;-80
2021/10/10 10:07:29;;;;;;;57.65;37.47;;;;;;;16.18;69.58;102976.78;5093180;28;20063;-77
2021/10/10 10:09:54;;;;;;;60.28;38.47;;;;;;;17.06;66.30;102974.94;5094403;28;20027;-74
2021/10/10 10:12:22;;;;;;;59.60;37.95;;;;;;;17.24;65.49;102969.84;5075419;28;20388;-75
2021/10/10 10:14:53;;;;;;;61.35;38.58;;;;;;;17.21;65.28;102970.97;5094285;28;20027;-74
2021/10/10 10:17:23;;;;;;;57.25;38.85;;;;;;;18.10;63.17;102967.72;5093663;28;20472;-76
2021/10/10 10:19:49;;;;;;;57.72;36.85;;;;;;;19.09;60.39;102964.16;5094363;28;20452;-76
2021/10/10 10:22:16;;;;;;;54.35;36.88;;;;;;;19.73;55.78;102970.69;5093938;28;20118;-81
2021/10/10 10:24:46;;;;;;;51.95;36.72;;;;;;;19.72;57.16;102968.97;5075573;28;20043;-73
2021/10/10 10:27:16;;;;;;;50.33;33.95;;;;;;;19.30;58.08;102969.41;5094178;28;20122;-83
2021/10/10 10:29:47;;;;;;;44.35;31.70;;;;;;;18.47;58.69;102971.66;5093454;28;20031;-81
2021/10/10 10:32:15;;;;;;;40.05;30.42;;;;;;;17.62;62.49;102971.91;5094114;28;20031;-80
2021/10/10 10:35:03;;;;;;;44.50;31.13;;;;;;;16.98;66.63;102964.84;5093244;28;20181;-79
2021/10/10 10:37:55;;;;;;;44.83;30.77;;;;;;;16.88;68.30;102970.16;5077366;28;20507;-77
2021/10/10 10:40:26;;;;;;;44.95;30.95;;;;;;;16.83;67.73;102964.28;5089236;28;20047;-78
2021/10/10 10:42:53;;;;;;;44.03;28.10;;;;;;;16.77;65.08;102959.41;5093803;28;20119;-81
2021/10/10 10:45:20;;;;;;;42.95;27.33;;;;;;;16.79;67.75;102960.13;5094121;28;20475;-75
2021/10/10 10:47:46;;;;;;;36.50;27.17;;;;;;;16.77;67.11;102958.56;5093166;28;20100;-83
2021/10/10 10:50:22;;;;;;;37.13;27.23;;;;;;;16.89;65.09;102953.03;5093711;28;20037;-82
2021/10/10 10:52:58;;;;;;;34.00;25.40;;;;;;;16.89;63.21;102957.56;5093142;28;20481;-81
2021/10/10 10:55:34;;;;;;;42.92;28.77;;;;;;;16.71;64.22;102954.56;5093147;28;20513;-86
2021/10/10 10:57:59;;;;;;;40.30;27.20;;;;;;;16.38;65.29;102948.31;5093769;28;20122;-78
2021/10/10 11:00:29;;;;;;;33.05;24.92;;;;;;;16.04;65.75;102954.59;5092836;28;20059;-76
2021/10/10 11:03:08;;;;;;;26.73;20.80;;;;;;;15.71;65.90;102959.94;5093145;28;20539;-79
2021/10/10 11:05:43;;;;;;;21.92;15.02;;;;;;;15.48;63.82;102965.28;5092747;28;20081;-83
2021/10/10 11:08:14;;;;;;;23.77;16.05;;;;;;;15.42;68.07;102960.38;5074983;28;20081;-80
2021/10/10 11:10:40;;;;;;;19.42;15.48;;;;;;;15.58;67.13;102958.22;5074314;28;20185;-75
2021/10/10 11:13:05;;;;;;;21.85;17.40;;;;;;;15.75;68.29;102953.34;5093198;28;20558;-76
2021/10/10 11:15:57;;;;;;;17.80;14.75;;;;;;;15.55;66.90;102958.44;5092395;28;20415;-75
2021/10/10 11:18:27;;;;;;;21.05;16.05;;;;;;;15.48;68.09;102954.53;5092697;28;20020;-75